createdAt,value
2019-03-19T00:02:46.906Z,18.07
2019-03-19T00:07:48.613Z,14.70
2019-03-19T00:12:50.189Z,15.87
2019-03-19T00:17:51.747Z,17.03
2019-03-19T00:22:53.511Z,19.97
2019-03-19T00:27:55.067Z,17.83
2019-03-19T00:32:57.356Z,18.37
2019-03-19T00:37:59.059Z,24.37
2019-03-19T00:43:00.904Z,18.63
2019-03-19T00:48:03.109Z,15.87
2019-03-19T00:53:04.784Z,16.03
2019-03-19T00:58:06.335Z,18.93
2019-03-19T01:03:08.181Z,21.43
2019-03-19T01:08:09.819Z,11.70
2019-03-19T01:13:11.373Z,15.43
2019-03-19T01:18:12.960Z,16.00
2019-03-19T01:23:14.812Z,14.60
2019-03-19T01:28:16.546Z,20.10
2019-03-19T01:33:18.083Z,15.53
2019-03-19T01:38:19.635Z,12.83
2019-03-19T01:43:21.180Z,10.33
2019-03-19T01:48:22.841Z,13.80
2019-03-19T01:53:24.397Z,19.57
2019-03-19T01:58:25.999Z,19.13
2019-03-19T02:03:27.607Z,15.33
2019-03-19T02:08:29.294Z,16.07
2019-03-19T02:13:30.853Z,11.80
2019-03-19T02:18:32.428Z,13.70
2019-03-19T02:23:33.986Z,15.37
2019-03-19T02:28:35.631Z,14.40
2019-03-19T02:33:37.194Z,14.73
2019-03-19T02:38:38.806Z,18.40
2019-03-19T02:43:40.348Z,19.50
2019-03-19T02:48:42.005Z,17.63
2019-03-19T02:53:43.564Z,11.90
2019-03-19T02:58:45.214Z,15.93
2019-03-19T03:03:46.870Z,13.03
2019-03-19T03:08:49.577Z,18.67
2019-03-19T03:13:51.234Z,17.70
2019-03-19T03:18:52.825Z,15.17
2019-03-19T03:23:54.392Z,19.07
2019-03-19T03:28:55.935Z,14.27
2019-03-19T03:33:57.513Z,16.10
2019-03-19T03:38:59.068Z,23.73
2019-03-19T03:44:00.617Z,16.13
2019-03-19T03:49:02.739Z,19.80
2019-03-19T03:54:04.299Z,22.30
2019-03-19T03:59:06.243Z,17.47
2019-03-19T04:04:07.794Z,20.63
2019-03-19T04:09:09.671Z,16.77
2019-03-19T04:14:11.322Z,21.30
2019-03-19T04:19:13.107Z,13.73
2019-03-19T04:24:14.676Z,25.17
2019-03-19T04:29:16.237Z,14.57
2019-03-19T04:34:17.794Z,13.27
2019-03-19T04:39:19.343Z,17.60
2019-03-19T04:44:20.943Z,17.93
2019-03-19T04:49:22.631Z,17.03
2019-03-19T04:54:24.230Z,19.30
2019-03-19T04:59:25.893Z,16.83
2019-03-19T05:04:27.482Z,18.50
2019-03-19T05:09:29.035Z,17.67
2019-03-19T05:14:30.663Z,22.20
2019-03-19T05:19:32.552Z,18.60
2019-03-19T05:24:34.114Z,20.00
2019-03-19T05:29:35.661Z,20.87
2019-03-19T05:34:37.215Z,22.00
2019-03-19T05:39:38.768Z,22.33
2019-03-19T05:44:40.600Z,16.27
2019-03-19T05:49:42.273Z,23.10
2019-03-19T05:54:46.031Z,22.37
2019-03-19T05:59:51.694Z,23.30
2019-03-19T06:04:54.039Z,29.57
2019-03-19T06:09:55.601Z,21.37
2019-03-19T06:14:57.201Z,21.07
2019-03-19T06:19:58.765Z,27.53
2019-03-19T06:25:00.431Z,21.73
2019-03-19T06:30:08.889Z,30.33
2019-03-19T06:35:11.887Z,23.97
2019-03-19T06:40:18.368Z,29.03
2019-03-19T06:45:22.891Z,24.20
2019-03-19T06:50:24.253Z,20.73
2019-03-19T06:55:25.803Z,20.90
2019-03-19T07:00:27.439Z,28.23
2019-03-19T07:05:29.103Z,28.57
2019-03-19T07:10:31.180Z,13.93
2019-03-19T07:15:32.792Z,21.63
2019-03-19T07:20:34.358Z,20.53
2019-03-19T07:25:35.913Z,18.83
2019-03-19T07:30:37.570Z,17.90
2019-03-19T07:35:42.179Z,18.63
2019-03-19T07:40:43.998Z,16.33
2019-03-19T07:45:45.621Z,24.03
2019-03-19T07:50:47.261Z,19.07
2019-03-19T07:55:48.871Z,19.43
2019-03-19T08:00:50.420Z,22.43
2019-03-19T08:05:51.980Z,20.53
2019-03-19T08:10:54.065Z,19.83
2019-03-19T08:15:55.822Z,24.17
2019-03-19T08:20:57.431Z,24.23
2019-03-19T08:25:58.991Z,19.47
2019-03-19T08:31:00.546Z,18.10
2019-03-19T08:36:09.293Z,21.23
2019-03-19T08:41:05.570Z,24.57
2019-03-19T08:46:07.131Z,18.77
2019-03-19T08:51:08.851Z,24.87
2019-03-19T08:56:10.797Z,22.97
2019-03-19T09:01:12.445Z,15.63
2019-03-19T09:06:14.408Z,19.77
2019-03-19T09:11:15.964Z,14.83
2019-03-19T09:16:17.615Z,14.50
2019-03-19T09:21:19.238Z,17.17
2019-03-19T09:26:20.792Z,21.73
2019-03-19T09:31:22.345Z,17.93
2019-03-19T09:36:25.813Z,19.93
2019-03-19T09:41:27.374Z,16.77
2019-03-19T09:46:29.344Z,16.10
2019-03-19T09:51:31.064Z,21.57
2019-03-19T09:56:33.727Z,12.67
2019-03-19T10:01:35.358Z,21.33
2019-03-19T10:06:36.920Z,17.90
2019-03-19T10:11:38.591Z,25.33
2019-03-19T10:16:40.142Z,23.47
2019-03-19T10:21:41.990Z,18.90
2019-03-19T10:26:43.551Z,19.33
2019-03-19T10:31:45.145Z,26.77
2019-03-19T10:36:46.691Z,30.33
2019-03-19T10:41:48.244Z,26.70
2019-03-19T10:46:49.791Z,20.23
2019-03-19T10:51:51.492Z,35.27
2019-03-19T10:56:53.147Z,18.63
2019-03-19T11:01:54.738Z,15.93
2019-03-19T11:06:56.944Z,18.70
2019-03-19T11:11:58.498Z,23.17
2019-03-19T11:17:00.053Z,22.73
2019-03-19T11:22:01.610Z,21.00
2019-03-19T11:27:03.407Z,27.23
2019-03-19T11:32:05.964Z,22.70
2019-03-19T11:37:07.871Z,12.30
2019-03-19T11:42:09.535Z,11.47
2019-03-19T11:47:12.190Z,14.77
2019-03-19T11:52:13.958Z,15.07
2019-03-19T11:57:15.499Z,14.70
2019-03-19T12:02:25.576Z,14.23
2019-03-19T12:07:20.904Z,16.37
2019-03-19T12:12:22.561Z,18.00
2019-03-19T12:17:24.120Z,15.00
2019-03-19T12:22:26.017Z,15.80
2019-03-19T12:27:27.570Z,16.97
2019-03-19T12:32:29.122Z,13.93
2019-03-19T12:37:30.752Z,14.37
2019-03-19T12:42:32.320Z,10.97
2019-03-19T12:47:33.908Z,11.47
2019-03-19T12:52:35.705Z,10.07
2019-03-19T12:57:37.274Z,6.83
2019-03-19T13:02:38.865Z,8.80
2019-03-19T13:07:40.429Z,21.33
2019-03-19T13:12:41.977Z,13.80
2019-03-19T13:17:43.979Z,17.17
2019-03-19T13:22:46.984Z,15.50
2019-03-19T13:27:48.857Z,24.80
2019-03-19T13:32:51.408Z,16.33
2019-03-19T13:37:53.223Z,8.77
2019-03-19T13:42:54.809Z,15.87
2019-03-19T13:47:56.365Z,14.90
2019-03-19T13:52:58.026Z,11.53
2019-03-19T13:57:59.581Z,18.43
2019-03-19T14:03:01.146Z,28.70
2019-03-19T14:08:03.075Z,37.77
2019-03-19T14:13:04.986Z,24.13
2019-03-19T14:18:06.541Z,44.60
2019-03-19T14:23:08.201Z,16.50
2019-03-19T14:28:09.868Z,19.53
2019-03-19T14:33:11.411Z,19.93
2019-03-19T14:38:12.980Z,10.07
2019-03-19T14:43:15.081Z,14.37
2019-03-19T14:48:16.673Z,18.73
2019-03-19T14:53:18.308Z,17.93
2019-03-19T14:58:19.993Z,18.23
2019-03-19T15:03:21.658Z,18.20
2019-03-19T15:08:25.423Z,20.03
2019-03-19T15:13:26.667Z,35.77
2019-03-19T15:18:28.236Z,29.37
2019-03-19T15:23:29.892Z,14.97
2019-03-19T15:28:31.526Z,27.57
2019-03-19T15:33:33.085Z,15.30
2019-03-19T15:38:34.740Z,11.90
2019-03-19T15:43:36.670Z,17.57
2019-03-19T15:48:38.341Z,21.53
2019-03-19T15:53:41.060Z,15.50
2019-03-19T15:58:42.616Z,19.70
2019-03-19T16:03:44.745Z,25.40
2019-03-19T16:08:46.594Z,21.10
2019-03-19T16:13:48.196Z,28.13
2019-03-19T16:18:49.954Z,33.03
2019-03-19T16:23:53.156Z,49.07
2019-03-19T16:28:55.736Z,50.77
2019-03-19T16:33:59.140Z,60.27
2019-03-19T16:39:04.861Z,62.30
2019-03-19T16:44:06.421Z,61.30
2019-03-19T16:49:08.042Z,185.30
2019-03-19T16:54:11.004Z,65.73
2019-03-19T16:59:15.641Z,56.83
2019-03-19T17:04:19.320Z,65.30
2019-03-19T17:09:21.138Z,74.43
2019-03-19T17:14:24.144Z,213.27
2019-03-19T17:19:28.282Z,338.83
2019-03-19T17:24:31.837Z,182.47
2019-03-19T17:29:35.716Z,167.87
2019-03-19T17:34:38.928Z,161.30
2019-03-19T17:39:40.516Z,210.07
2019-03-19T17:44:44.283Z,94.93
2019-03-19T17:49:47.990Z,104.07
2019-03-19T17:54:50.211Z,106.73
2019-03-19T17:59:53.640Z,84.37
2019-03-19T18:04:56.644Z,87.97
2019-03-19T18:09:59.549Z,125.73
2019-03-19T18:15:03.624Z,117.43
2019-03-19T18:20:09.656Z,104.37
2019-03-19T18:25:13.467Z,211.23
2019-03-19T18:30:22.070Z,372.37
2019-03-19T18:35:23.632Z,759.00
2019-03-19T18:40:25.193Z,875.13
2019-03-19T18:45:26.745Z,611.53
2019-03-19T18:50:28.374Z,914.73
2019-03-19T18:55:30.012Z,520.33
2019-03-19T19:00:31.680Z,301.40
2019-03-19T19:05:33.345Z,162.70
2019-03-19T19:10:37.328Z,132.73
2019-03-19T19:15:40.798Z,91.30
2019-03-19T19:20:44.328Z,64.77
2019-03-19T19:25:47.321Z,101.60
2019-03-19T19:30:50.041Z,91.30
2019-03-19T19:35:51.872Z,91.53
2019-03-19T19:40:56.663Z,93.47
2019-03-19T19:45:58.387Z,92.73
2019-03-19T19:51:01.306Z,105.73
2019-03-19T19:56:04.405Z,124.70
2019-03-19T20:01:09.148Z,135.90
2019-03-19T20:06:10.721Z,138.53
2019-03-19T20:11:14.208Z,117.07
2019-03-19T20:16:18.338Z,93.67
2019-03-19T20:21:20.312Z,116.47
2019-03-19T20:26:23.841Z,171.00
2019-03-19T20:31:27.008Z,133.53
2019-03-19T20:36:28.870Z,104.93
2019-03-19T20:41:31.247Z,106.70
2019-03-19T20:46:35.943Z,130.90
2019-03-19T20:51:39.182Z,128.67
2019-03-19T20:56:42.226Z,141.17
2019-03-19T21:01:44.010Z,150.77
2019-03-19T21:06:47.576Z,164.23
2019-03-19T21:11:53.241Z,128.40
2019-03-19T21:16:57.470Z,145.97
2019-03-19T21:22:00.719Z,157.93
2019-03-19T21:27:02.488Z,161.23
2019-03-19T21:32:04.201Z,169.03
2019-03-19T21:37:06.853Z,169.87
2019-03-19T21:42:09.044Z,161.90
2019-03-19T21:47:10.733Z,152.07
2019-03-19T21:52:14.243Z,130.73
2019-03-19T21:57:15.994Z,133.37
2019-03-19T22:02:18.854Z,125.50
2019-03-19T22:07:20.432Z,115.17
2019-03-19T22:12:22.327Z,135.17
2019-03-19T22:17:25.271Z,149.33
2019-03-19T22:22:28.371Z,172.57
2019-03-19T22:27:31.556Z,146.07
2019-03-19T22:32:34.660Z,147.00
2019-03-19T22:37:36.261Z,144.77
2019-03-19T22:42:38.024Z,179.50
2019-03-19T22:47:40.150Z,184.30
2019-03-19T22:52:43.396Z,186.60
2019-03-19T22:57:45.302Z,185.07
2019-03-19T23:02:47.242Z,183.20
2019-03-19T23:07:49.139Z,183.17
2019-03-19T23:12:50.868Z,165.90
2019-03-19T23:17:52.630Z,184.70
2019-03-19T23:22:54.307Z,182.67
2019-03-19T23:27:55.910Z,262.27
2019-03-19T23:32:57.599Z,233.03
2019-03-19T23:37:59.151Z,165.80
2019-03-19T23:43:00.963Z,122.20
2019-03-19T23:48:02.870Z,122.77
2019-03-19T23:53:04.527Z,120.57
2019-03-19T23:58:06.164Z,166.87
